sensor_id;sensor_type;location;lat;lon;timestamp;P1;durP1;ratioP1;P2;durP2;ratioP2
10465;SDS011;5280;42.600;23.556;2022-09-03T00:01:42;9.50;;;6.37;;
10465;SDS011;5280;42.600;23.556;2022-09-03T00:04:16;9.70;;;6.87;;
10465;SDS011;5280;42.600;23.556;2022-09-03T00:06:48;6.90;;;6.13;;
10465;SDS011;5280;42.600;23.556;2022-09-03T00:09:24;7.50;;;5.83;;
10465;SDS011;5280;42.600;23.556;2022-09-03T00:11:56;11.07;;;6.80;;
10465;SDS011;5280;42.600;23.556;2022-09-03T00:14:31;11.10;;;6.73;;
10465;SDS011;5280;42.600;23.556;2022-09-03T00:17:04;9.03;;;6.73;;
10465;SDS011;5280;42.600;23.556;2022-09-03T00:19:38;8.63;;;5.80;;
10465;SDS011;5280;42.600;23.556;2022-09-03T00:22:12;10.97;;;6.87;;
10465;SDS011;5280;42.600;23.556;2022-09-03T00:24:42;8.47;;;6.67;;
10465;SDS011;5280;42.600;23.556;2022-09-03T00:27:12;9.40;;;7.10;;
10465;SDS011;5280;42.600;23.556;2022-09-03T00:29:44;9.17;;;6.57;;
10465;SDS011;5280;42.600;23.556;2022-09-03T00:32:19;9.43;;;6.20;;
10465;SDS011;5280;42.600;23.556;2022-09-03T00:34:51;12.50;;;7.10;;
10465;SDS011;5280;42.600;23.556;2022-09-03T00:37:23;10.70;;;6.30;;
10465;SDS011;5280;42.600;23.556;2022-09-03T00:39:51;13.20;;;5.97;;
10465;SDS011;5280;42.600;23.556;2022-09-03T00:42:23;15.13;;;6.57;;
10465;SDS011;5280;42.600;23.556;2022-09-03T00:45:11;9.63;;;6.60;;
10465;SDS011;5280;42.600;23.556;2022-09-03T00:47:51;11.10;;;7.03;;
10465;SDS011;5280;42.600;23.556;2022-09-03T00:50:31;9.93;;;6.30;;
10465;SDS011;5280;42.600;23.556;2022-09-03T00:53:07;8.33;;;6.43;;
10465;SDS011;5280;42.600;23.556;2022-09-03T00:55:43;5.93;;;5.40;;
10465;SDS011;5280;42.600;23.556;2022-09-03T00:58:29;9.87;;;6.57;;
10465;SDS011;5280;42.600;23.556;2022-09-03T01:01:09;10.17;;;6.47;;
10465;SDS011;5280;42.600;23.556;2022-09-03T01:03:48;7.50;;;5.80;;
10465;SDS011;5280;42.600;23.556;2022-09-03T01:06:27;7.20;;;6.00;;
10465;SDS011;5280;42.600;23.556;2022-09-03T01:09:02;5.37;;;4.83;;
10465;SDS011;5280;42.600;23.556;2022-09-03T01:11:38;6.60;;;5.63;;
10465;SDS011;5280;42.600;23.556;2022-09-03T01:14:22;7.43;;;5.70;;
10465;SDS011;5280;42.600;23.556;2022-09-03T01:17:00;6.97;;;5.63;;
10465;SDS011;5280;42.600;23.556;2022-09-03T01:19:50;10.57;;;5.80;;
10465;SDS011;5280;42.600;23.556;2022-09-03T01:25:34;10.70;;;6.17;;
10465;SDS011;5280;42.600;23.556;2022-09-03T01:28:21;10.07;;;6.40;;
10465;SDS011;5280;42.600;23.556;2022-09-03T01:31:09;8.47;;;5.83;;
10465;SDS011;5280;42.600;23.556;2022-09-03T01:33:46;9.33;;;6.87;;
10465;SDS011;5280;42.600;23.556;2022-09-03T01:36:22;9.47;;;6.57;;
10465;SDS011;5280;42.600;23.556;2022-09-03T01:38:58;7.23;;;5.70;;
10465;SDS011;5280;42.600;23.556;2022-09-03T01:41:29;12.07;;;7.03;;
10465;SDS011;5280;42.600;23.556;2022-09-03T01:44:27;8.27;;;6.63;;
10465;SDS011;5280;42.600;23.556;2022-09-03T01:47:07;9.83;;;7.40;;
10465;SDS011;5280;42.600;23.556;2022-09-03T01:49:45;11.77;;;7.83;;
10465;SDS011;5280;42.600;23.556;2022-09-03T01:52:24;11.87;;;7.30;;
10465;SDS011;5280;42.600;23.556;2022-09-03T01:55:06;8.50;;;7.70;;
10465;SDS011;5280;42.600;23.556;2022-09-03T01:57:48;8.67;;;7.80;;
10465;SDS011;5280;42.600;23.556;2022-09-03T02:00:23;11.37;;;7.80;;
10465;SDS011;5280;42.600;23.556;2022-09-03T02:02:51;10.67;;;8.03;;
10465;SDS011;5280;42.600;23.556;2022-09-03T02:05:18;10.50;;;8.03;;
10465;SDS011;5280;42.600;23.556;2022-09-03T02:07:47;11.70;;;8.30;;
10465;SDS011;5280;42.600;23.556;2022-09-03T02:10:18;9.17;;;7.27;;
10465;SDS011;5280;42.600;23.556;2022-09-03T02:12:47;8.50;;;6.87;;
10465;SDS011;5280;42.600;23.556;2022-09-03T02:15:19;9.77;;;6.87;;
10465;SDS011;5280;42.600;23.556;2022-09-03T02:17:49;9.03;;;7.57;;
10465;SDS011;5280;42.600;23.556;2022-09-03T02:20:21;11.13;;;7.43;;
10465;SDS011;5280;42.600;23.556;2022-09-03T02:22:52;10.23;;;7.77;;
10465;SDS011;5280;42.600;23.556;2022-09-03T02:25:19;9.73;;;6.93;;
10465;SDS011;5280;42.600;23.556;2022-09-03T02:27:49;9.43;;;8.20;;
10465;SDS011;5280;42.600;23.556;2022-09-03T02:30:16;10.87;;;8.10;;
10465;SDS011;5280;42.600;23.556;2022-09-03T02:32:43;10.23;;;7.30;;
10465;SDS011;5280;42.600;23.556;2022-09-03T02:35:12;10.17;;;7.80;;
10465;SDS011;5280;42.600;23.556;2022-09-03T02:37:39;11.10;;;7.80;;
10465;SDS011;5280;42.600;23.556;2022-09-03T02:40:06;11.53;;;7.70;;
10465;SDS011;5280;42.600;23.556;2022-09-03T02:42:35;10.60;;;8.07;;
10465;SDS011;5280;42.600;23.556;2022-09-03T02:45:03;9.03;;;7.80;;
10465;SDS011;5280;42.600;23.556;2022-09-03T02:47:39;8.20;;;7.40;;
10465;SDS011;5280;42.600;23.556;2022-09-03T02:50:09;7.73;;;6.93;;
10465;SDS011;5280;42.600;23.556;2022-09-03T02:52:37;8.63;;;7.73;;
10465;SDS011;5280;42.600;23.556;2022-09-03T02:55:04;9.40;;;7.87;;
10465;SDS011;5280;42.600;23.556;2022-09-03T02:57:31;8.60;;;7.60;;
10465;SDS011;5280;42.600;23.556;2022-09-03T02:59:58;10.00;;;7.43;;
10465;SDS011;5280;42.600;23.556;2022-09-03T03:02:25;9.17;;;7.80;;
10465;SDS011;5280;42.600;23.556;2022-09-03T03:04:52;8.17;;;7.33;;
10465;SDS011;5280;42.600;23.556;2022-09-03T03:07:19;8.83;;;7.03;;
10465;SDS011;5280;42.600;23.556;2022-09-03T03:09:48;11.70;;;7.60;;
10465;SDS011;5280;42.600;23.556;2022-09-03T03:12:15;9.30;;;7.27;;
10465;SDS011;5280;42.600;23.556;2022-09-03T03:14:43;10.67;;;7.73;;
10465;SDS011;5280;42.600;23.556;2022-09-03T03:17:10;8.53;;;7.40;;
10465;SDS011;5280;42.600;23.556;2022-09-03T03:19:36;9.83;;;7.77;;
10465;SDS011;5280;42.600;23.556;2022-09-03T03:22:03;10.07;;;7.67;;
10465;SDS011;5280;42.600;23.556;2022-09-03T03:24:30;8.57;;;7.77;;
10465;SDS011;5280;42.600;23.556;2022-09-03T03:27:00;10.77;;;8.10;;
10465;SDS011;5280;42.600;23.556;2022-09-03T03:29:29;9.27;;;7.77;;
10465;SDS011;5280;42.600;23.556;2022-09-03T03:31:56;11.53;;;8.10;;
10465;SDS011;5280;42.600;23.556;2022-09-03T03:34:23;11.83;;;8.57;;
10465;SDS011;5280;42.600;23.556;2022-09-03T03:36:50;9.33;;;8.20;;
10465;SDS011;5280;42.600;23.556;2022-09-03T03:39:17;10.30;;;8.13;;
10465;SDS011;5280;42.600;23.556;2022-09-03T03:41:45;10.70;;;8.73;;
10465;SDS011;5280;42.600;23.556;2022-09-03T03:44:13;9.43;;;8.30;;
10465;SDS011;5280;42.600;23.556;2022-09-03T03:46:41;8.73;;;7.90;;
10465;SDS011;5280;42.600;23.556;2022-09-03T03:49:09;8.70;;;7.80;;
10465;SDS011;5280;42.600;23.556;2022-09-03T03:51:36;9.90;;;7.67;;
10465;SDS011;5280;42.600;23.556;2022-09-03T03:54:04;11.47;;;7.60;;
10465;SDS011;5280;42.600;23.556;2022-09-03T03:56:32;8.17;;;7.37;;
10465;SDS011;5280;42.600;23.556;2022-09-03T03:58:59;8.10;;;7.30;;
10465;SDS011;5280;42.600;23.556;2022-09-03T04:01:27;8.40;;;7.10;;
10465;SDS011;5280;42.600;23.556;2022-09-03T04:03:55;12.33;;;7.70;;
10465;SDS011;5280;42.600;23.556;2022-09-03T04:06:24;8.67;;;7.50;;
10465;SDS011;5280;42.600;23.556;2022-09-03T04:08:51;7.93;;;6.80;;
10465;SDS011;5280;42.600;23.556;2022-09-03T04:11:19;8.83;;;7.40;;
10465;SDS011;5280;42.600;23.556;2022-09-03T04:13:48;7.63;;;6.93;;
10465;SDS011;5280;42.600;23.556;2022-09-03T04:16:15;10.27;;;7.50;;
10465;SDS011;5280;42.600;23.556;2022-09-03T04:18:45;8.57;;;7.67;;
10465;SDS011;5280;42.600;23.556;2022-09-03T04:21:13;11.20;;;7.60;;
10465;SDS011;5280;42.600;23.556;2022-09-03T04:23:42;8.07;;;7.27;;
10465;SDS011;5280;42.600;23.556;2022-09-03T04:26:13;10.33;;;7.63;;
10465;SDS011;5280;42.600;23.556;2022-09-03T04:28:40;8.17;;;7.27;;
10465;SDS011;5280;42.600;23.556;2022-09-03T04:31:10;8.73;;;7.10;;
10465;SDS011;5280;42.600;23.556;2022-09-03T04:33:38;9.37;;;6.93;;
10465;SDS011;5280;42.600;23.556;2022-09-03T04:36:07;8.20;;;7.40;;
10465;SDS011;5280;42.600;23.556;2022-09-03T04:38:36;8.27;;;7.47;;
10465;SDS011;5280;42.600;23.556;2022-09-03T04:41:05;11.93;;;7.87;;
10465;SDS011;5280;42.600;23.556;2022-09-03T04:43:33;8.03;;;7.03;;
10465;SDS011;5280;42.600;23.556;2022-09-03T04:46:01;7.20;;;6.50;;
10465;SDS011;5280;42.600;23.556;2022-09-03T04:48:31;9.47;;;7.10;;
10465;SDS011;5280;42.600;23.556;2022-09-03T04:51:00;7.70;;;7.00;;
10465;SDS011;5280;42.600;23.556;2022-09-03T04:53:30;9.13;;;6.97;;
10465;SDS011;5280;42.600;23.556;2022-09-03T04:55:58;9.67;;;7.53;;
10465;SDS011;5280;42.600;23.556;2022-09-03T04:58:25;8.33;;;7.27;;
10465;SDS011;5280;42.600;23.556;2022-09-03T05:00:52;10.97;;;7.50;;
10465;SDS011;5280;42.600;23.556;2022-09-03T05:03:19;9.00;;;7.33;;
10465;SDS011;5280;42.600;23.556;2022-09-03T05:05:55;7.50;;;6.87;;
10465;SDS011;5280;42.600;23.556;2022-09-03T05:08:26;10.40;;;7.80;;
10465;SDS011;5280;42.600;23.556;2022-09-03T05:10:59;8.93;;;7.30;;
10465;SDS011;5280;42.600;23.556;2022-09-03T05:13:26;8.77;;;7.17;;
10465;SDS011;5280;42.600;23.556;2022-09-03T05:15:57;7.87;;;7.07;;
10465;SDS011;5280;42.600;23.556;2022-09-03T05:18:25;8.50;;;7.70;;
10465;SDS011;5280;42.600;23.556;2022-09-03T05:20:56;7.77;;;6.97;;
10465;SDS011;5280;42.600;23.556;2022-09-03T05:23:24;8.00;;;7.17;;
10465;SDS011;5280;42.600;23.556;2022-09-03T05:25:53;8.67;;;7.23;;
10465;SDS011;5280;42.600;23.556;2022-09-03T05:28:23;8.53;;;7.53;;
10465;SDS011;5280;42.600;23.556;2022-09-03T05:30:58;9.67;;;7.10;;
10465;SDS011;5280;42.600;23.556;2022-09-03T05:33:25;8.03;;;6.47;;
10465;SDS011;5280;42.600;23.556;2022-09-03T05:35:59;8.53;;;7.27;;
10465;SDS011;5280;42.600;23.556;2022-09-03T05:38:26;8.60;;;7.70;;
10465;SDS011;5280;42.600;23.556;2022-09-03T05:40:56;8.27;;;7.40;;
10465;SDS011;5280;42.600;23.556;2022-09-03T05:43:25;7.97;;;7.17;;
10465;SDS011;5280;42.600;23.556;2022-09-03T05:45:55;8.63;;;7.47;;
10465;SDS011;5280;42.600;23.556;2022-09-03T05:48:23;7.90;;;7.00;;
10465;SDS011;5280;42.600;23.556;2022-09-03T05:50:57;9.00;;;7.77;;
10465;SDS011;5280;42.600;23.556;2022-09-03T05:53:25;10.33;;;7.67;;
10465;SDS011;5280;42.600;23.556;2022-09-03T05:55:53;7.73;;;6.77;;
10465;SDS011;5280;42.600;23.556;2022-09-03T05:58:21;8.40;;;7.47;;
10465;SDS011;5280;42.600;23.556;2022-09-03T06:00:50;7.63;;;6.93;;
10465;SDS011;5280;42.600;23.556;2022-09-03T06:03:17;7.97;;;7.10;;
10465;SDS011;5280;42.600;23.556;2022-09-03T06:05:48;9.73;;;6.63;;
10465;SDS011;5280;42.600;23.556;2022-09-03T06:08:16;8.27;;;7.27;;
10465;SDS011;5280;42.600;23.556;2022-09-03T06:10:43;7.77;;;6.93;;
10465;SDS011;5280;42.600;23.556;2022-09-03T06:13:10;8.07;;;7.27;;
10465;SDS011;5280;42.600;23.556;2022-09-03T06:15:37;7.77;;;6.97;;
10465;SDS011;5280;42.600;23.556;2022-09-03T06:18:06;7.73;;;6.90;;
10465;SDS011;5280;42.600;23.556;2022-09-03T06:20:33;8.23;;;7.33;;
10465;SDS011;5280;42.600;23.556;2022-09-03T06:23:00;8.40;;;7.60;;
10465;SDS011;5280;42.600;23.556;2022-09-03T06:25:27;7.50;;;6.77;;
10465;SDS011;5280;42.600;23.556;2022-09-03T06:27:54;8.63;;;7.00;;
10465;SDS011;5280;42.600;23.556;2022-09-03T06:30:21;7.90;;;7.10;;
10465;SDS011;5280;42.600;23.556;2022-09-03T06:32:48;12.23;;;7.47;;
10465;SDS011;5280;42.600;23.556;2022-09-03T06:35:17;7.30;;;6.60;;
10465;SDS011;5280;42.600;23.556;2022-09-03T06:37:44;7.03;;;6.33;;
10465;SDS011;5280;42.600;23.556;2022-09-03T06:40:11;8.00;;;7.20;;
10465;SDS011;5280;42.600;23.556;2022-09-03T06:42:38;8.70;;;6.83;;
10465;SDS011;5280;42.600;23.556;2022-09-03T06:45:06;7.90;;;6.93;;
10465;SDS011;5280;42.600;23.556;2022-09-03T06:47:33;7.67;;;6.97;;
10465;SDS011;5280;42.600;23.556;2022-09-03T06:50:00;6.50;;;5.90;;
10465;SDS011;5280;42.600;23.556;2022-09-03T06:52:29;6.93;;;6.23;;
10465;SDS011;5280;42.600;23.556;2022-09-03T06:54:56;6.70;;;6.10;;
10465;SDS011;5280;42.600;23.556;2022-09-03T06:57:22;9.67;;;6.60;;
10465;SDS011;5280;42.600;23.556;2022-09-03T06:59:49;9.10;;;7.00;;
10465;SDS011;5280;42.600;23.556;2022-09-03T07:02:18;7.30;;;6.60;;
10465;SDS011;5280;42.600;23.556;2022-09-03T07:04:46;7.00;;;6.33;;
10465;SDS011;5280;42.600;23.556;2022-09-03T07:07:14;7.40;;;6.63;;
10465;SDS011;5280;42.600;23.556;2022-09-03T07:09:43;7.07;;;6.37;;
10465;SDS011;5280;42.600;23.556;2022-09-03T07:12:09;7.77;;;6.83;;
10465;SDS011;5280;42.600;23.556;2022-09-03T07:14:40;11.50;;;6.50;;
10465;SDS011;5280;42.600;23.556;2022-09-03T07:17:06;6.67;;;6.07;;
10465;SDS011;5280;42.600;23.556;2022-09-03T07:19:33;6.70;;;6.10;;
10465;SDS011;5280;42.600;23.556;2022-09-03T07:22:00;6.50;;;5.83;;
10465;SDS011;5280;42.600;23.556;2022-09-03T07:24:27;6.53;;;5.93;;
10465;SDS011;5280;42.600;23.556;2022-09-03T07:26:55;6.67;;;6.07;;
10465;SDS011;5280;42.600;23.556;2022-09-03T07:29:22;9.13;;;6.87;;
10465;SDS011;5280;42.600;23.556;2022-09-03T07:31:49;8.20;;;7.40;;
10465;SDS011;5280;42.600;23.556;2022-09-03T07:34:16;7.37;;;6.67;;
10465;SDS011;5280;42.600;23.556;2022-09-03T07:36:44;6.60;;;6.10;;
10465;SDS011;5280;42.600;23.556;2022-09-03T07:39:15;6.73;;;6.13;;
10465;SDS011;5280;42.600;23.556;2022-09-03T07:41:43;7.20;;;6.60;;
10465;SDS011;5280;42.600;23.556;2022-09-03T07:44:16;6.73;;;6.13;;
10465;SDS011;5280;42.600;23.556;2022-09-03T07:46:44;6.33;;;5.83;;
10465;SDS011;5280;42.600;23.556;2022-09-03T07:49:15;6.30;;;5.77;;
10465;SDS011;5280;42.600;23.556;2022-09-03T07:51:44;6.70;;;6.10;;
10465;SDS011;5280;42.600;23.556;2022-09-03T07:54:14;7.60;;;6.90;;
10465;SDS011;5280;42.600;23.556;2022-09-03T07:56:41;6.50;;;5.90;;
10465;SDS011;5280;42.600;23.556;2022-09-03T07:59:08;6.97;;;6.27;;
10465;SDS011;5280;42.600;23.556;2022-09-03T08:01:37;7.30;;;6.60;;
10465;SDS011;5280;42.600;23.556;2022-09-03T08:04:04;6.20;;;5.70;;
10465;SDS011;5280;42.600;23.556;2022-09-03T08:06:32;7.53;;;5.90;;
10465;SDS011;5280;42.600;23.556;2022-09-03T08:09:00;6.93;;;6.33;;
10465;SDS011;5280;42.600;23.556;2022-09-03T08:11:29;6.60;;;6.00;;
10465;SDS011;5280;42.600;23.556;2022-09-03T08:13:56;6.63;;;6.07;;
10465;SDS011;5280;42.600;23.556;2022-09-03T08:16:26;7.13;;;6.43;;
10465;SDS011;5280;42.600;23.556;2022-09-03T08:18:56;6.60;;;6.00;;
10465;SDS011;5280;42.600;23.556;2022-09-03T08:21:23;6.60;;;6.00;;
10465;SDS011;5280;42.600;23.556;2022-09-03T08:23:53;6.53;;;6.00;;
10465;SDS011;5280;42.600;23.556;2022-09-03T08:26:26;6.47;;;5.87;;
10465;SDS011;5280;42.600;23.556;2022-09-03T08:28:54;6.77;;;6.17;;
10465;SDS011;5280;42.600;23.556;2022-09-03T08:31:21;6.27;;;5.77;;
10465;SDS011;5280;42.600;23.556;2022-09-03T08:33:49;6.67;;;6.17;;
10465;SDS011;5280;42.600;23.556;2022-09-03T08:36:20;6.40;;;5.80;;
10465;SDS011;5280;42.600;23.556;2022-09-03T08:38:57;6.53;;;5.97;;
10465;SDS011;5280;42.600;23.556;2022-09-03T08:41:32;6.60;;;6.10;;
10465;SDS011;5280;42.600;23.556;2022-09-03T08:44:14;7.13;;;6.43;;
10465;SDS011;5280;42.600;23.556;2022-09-03T08:46:49;8.17;;;6.77;;
10465;SDS011;5280;42.600;23.556;2022-09-03T08:49:23;7.30;;;6.60;;
10465;SDS011;5280;42.600;23.556;2022-09-03T08:51:56;6.90;;;6.30;;
10465;SDS011;5280;42.600;23.556;2022-09-03T08:54:28;7.40;;;6.70;;
10465;SDS011;5280;42.600;23.556;2022-09-03T08:56:59;6.47;;;5.97;;
10465;SDS011;5280;42.600;23.556;2022-09-03T08:59:28;6.23;;;5.63;;
10465;SDS011;5280;42.600;23.556;2022-09-03T09:02:01;7.30;;;6.60;;
10465;SDS011;5280;42.600;23.556;2022-09-03T09:04:46;6.90;;;6.30;;
10465;SDS011;5280;42.600;23.556;2022-09-03T09:07:31;6.30;;;5.80;;
10465;SDS011;5280;42.600;23.556;2022-09-03T09:10:08;6.63;;;6.03;;
10465;SDS011;5280;42.600;23.556;2022-09-03T09:12:42;6.40;;;5.90;;
10465;SDS011;5280;42.600;23.556;2022-09-03T09:15:18;6.47;;;5.93;;
10465;SDS011;5280;42.600;23.556;2022-09-03T09:17:59;14.60;;;6.43;;
10465;SDS011;5280;42.600;23.556;2022-09-03T09:20:38;7.53;;;5.43;;
10465;SDS011;5280;42.600;23.556;2022-09-03T09:23:14;6.70;;;5.67;;
10465;SDS011;5280;42.600;23.556;2022-09-03T09:25:50;5.83;;;5.43;;
10465;SDS011;5280;42.600;23.556;2022-09-03T09:28:23;6.00;;;5.40;;
10465;SDS011;5280;42.600;23.556;2022-09-03T09:30:53;6.03;;;5.53;;
10465;SDS011;5280;42.600;23.556;2022-09-03T09:33:22;5.90;;;5.37;;
10465;SDS011;5280;42.600;23.556;2022-09-03T09:35:53;6.37;;;5.87;;
10465;SDS011;5280;42.600;23.556;2022-09-03T09:38:28;6.70;;;6.07;;
10465;SDS011;5280;42.600;23.556;2022-09-03T09:41:06;6.60;;;5.87;;
10465;SDS011;5280;42.600;23.556;2022-09-03T09:43:35;6.77;;;6.17;;
10465;SDS011;5280;42.600;23.556;2022-09-03T09:46:08;7.97;;;6.10;;
10465;SDS011;5280;42.600;23.556;2022-09-03T09:48:46;6.43;;;5.73;;
10465;SDS011;5280;42.600;23.556;2022-09-03T09:51:19;5.97;;;5.47;;
10465;SDS011;5280;42.600;23.556;2022-09-03T09:53:58;9.03;;;6.07;;
10465;SDS011;5280;42.600;23.556;2022-09-03T09:56:26;7.10;;;6.50;;
10465;SDS011;5280;42.600;23.556;2022-09-03T09:59:05;6.73;;;6.13;;
10465;SDS011;5280;42.600;23.556;2022-09-03T10:01:37;6.80;;;5.60;;
10465;SDS011;5280;42.600;23.556;2022-09-03T10:04:09;6.27;;;5.73;;
10465;SDS011;5280;42.600;23.556;2022-09-03T10:06:38;6.30;;;5.80;;
10465;SDS011;5280;42.600;23.556;2022-09-03T10:09:30;5.87;;;5.37;;
10465;SDS011;5280;42.600;23.556;2022-09-03T10:12:04;6.30;;;5.67;;
10465;SDS011;5280;42.600;23.556;2022-09-03T10:14:41;6.13;;;5.10;;
10465;SDS011;5280;42.600;23.556;2022-09-03T10:17:13;5.93;;;5.50;;
10465;SDS011;5280;42.600;23.556;2022-09-03T10:19:47;6.10;;;5.60;;
10465;SDS011;5280;42.600;23.556;2022-09-03T10:22:37;5.43;;;5.03;;
10465;SDS011;5280;42.600;23.556;2022-09-03T10:25:12;6.70;;;5.50;;
10465;SDS011;5280;42.600;23.556;2022-09-03T10:27:40;5.30;;;4.90;;
10465;SDS011;5280;42.600;23.556;2022-09-03T10:30:10;5.43;;;4.93;;
10465;SDS011;5280;42.600;23.556;2022-09-03T10:32:39;5.63;;;5.13;;
10465;SDS011;5280;42.600;23.556;2022-09-03T10:35:18;5.60;;;5.17;;
10465;SDS011;5280;42.600;23.556;2022-09-03T10:37:49;5.37;;;4.87;;
10465;SDS011;5280;42.600;23.556;2022-09-03T10:40:28;5.97;;;5.40;;
10465;SDS011;5280;42.600;23.556;2022-09-03T10:43:11;5.70;;;5.20;;
10465;SDS011;5280;42.600;23.556;2022-09-03T10:45:55;6.40;;;5.53;;
10465;SDS011;5280;42.600;23.556;2022-09-03T10:48:37;7.80;;;5.03;;
10465;SDS011;5280;42.600;23.556;2022-09-03T10:51:35;5.87;;;5.47;;
10465;SDS011;5280;42.600;23.556;2022-09-03T10:54:11;5.33;;;4.93;;
10465;SDS011;5280;42.600;23.556;2022-09-03T10:56:54;5.40;;;5.00;;
10465;SDS011;5280;42.600;23.556;2022-09-03T10:59:31;5.53;;;5.10;;
10465;SDS011;5280;42.600;23.556;2022-09-03T11:02:19;5.37;;;4.83;;
10465;SDS011;5280;42.600;23.556;2022-09-03T11:05:00;5.03;;;4.63;;
10465;SDS011;5280;42.600;23.556;2022-09-03T11:07:33;5.50;;;5.10;;
10465;SDS011;5280;42.600;23.556;2022-09-03T11:10:09;5.50;;;5.10;;
10465;SDS011;5280;42.600;23.556;2022-09-03T11:12:41;6.23;;;5.00;;
10465;SDS011;5280;42.600;23.556;2022-09-03T11:15:12;6.90;;;5.07;;
10465;SDS011;5280;42.600;23.556;2022-09-03T11:17:46;4.93;;;4.40;;
10465;SDS011;5280;42.600;23.556;2022-09-03T11:20:19;5.37;;;4.90;;
10465;SDS011;5280;42.600;23.556;2022-09-03T11:22:47;5.57;;;5.07;;
10465;SDS011;5280;42.600;23.556;2022-09-03T11:25:17;5.10;;;4.60;;
10465;SDS011;5280;42.600;23.556;2022-09-03T11:27:51;4.70;;;4.30;;
10465;SDS011;5280;42.600;23.556;2022-09-03T11:30:28;4.57;;;4.27;;
10465;SDS011;5280;42.600;23.556;2022-09-03T11:33:04;4.57;;;4.27;;
10465;SDS011;5280;42.600;23.556;2022-09-03T11:35:37;6.93;;;5.20;;
10465;SDS011;5280;42.600;23.556;2022-09-03T11:38:18;7.40;;;4.63;;
10465;SDS011;5280;42.600;23.556;2022-09-03T11:40:58;4.37;;;4.07;;
10465;SDS011;5280;42.600;23.556;2022-09-03T11:43:30;4.50;;;4.10;;
10465;SDS011;5280;42.600;23.556;2022-09-03T11:46:05;4.97;;;4.30;;
10465;SDS011;5280;42.600;23.556;2022-09-03T11:48:38;4.37;;;4.03;;
10465;SDS011;5280;42.600;23.556;2022-09-03T11:51:18;5.53;;;5.10;;
10465;SDS011;5280;42.600;23.556;2022-09-03T11:53:54;5.13;;;4.73;;
10465;SDS011;5280;42.600;23.556;2022-09-03T11:56:23;4.63;;;4.33;;
10465;SDS011;5280;42.600;23.556;2022-09-03T11:59:02;4.63;;;4.27;;
10465;SDS011;5280;42.600;23.556;2022-09-03T12:01:45;5.07;;;4.67;;
10465;SDS011;5280;42.600;23.556;2022-09-03T12:04:17;4.50;;;4.20;;
10465;SDS011;5280;42.600;23.556;2022-09-03T12:09:53;4.80;;;4.50;;
10465;SDS011;5280;42.600;23.556;2022-09-03T12:12:35;4.70;;;4.40;;
10465;SDS011;5280;42.600;23.556;2022-09-03T12:15:13;5.77;;;5.27;;
10465;SDS011;5280;42.600;23.556;2022-09-03T12:17:51;4.40;;;4.10;;
10465;SDS011;5280;42.600;23.556;2022-09-03T12:20:36;4.20;;;3.90;;
10465;SDS011;5280;42.600;23.556;2022-09-03T12:23:06;4.50;;;4.20;;
10465;SDS011;5280;42.600;23.556;2022-09-03T12:25:41;4.30;;;4.00;;
10465;SDS011;5280;42.600;23.556;2022-09-03T12:28:11;3.90;;;3.67;;
10465;SDS011;5280;42.600;23.556;2022-09-03T12:30:45;4.37;;;4.07;;
10465;SDS011;5280;42.600;23.556;2022-09-03T12:33:12;4.23;;;3.83;;
10465;SDS011;5280;42.600;23.556;2022-09-03T12:35:43;3.90;;;3.60;;
10465;SDS011;5280;42.600;23.556;2022-09-03T12:38:22;4.77;;;4.27;;
10465;SDS011;5280;42.600;23.556;2022-09-03T12:40:50;3.90;;;3.60;;
10465;SDS011;5280;42.600;23.556;2022-09-03T12:43:17;4.40;;;4.00;;
10465;SDS011;5280;42.600;23.556;2022-09-03T12:45:45;3.93;;;3.63;;
10465;SDS011;5280;42.600;23.556;2022-09-03T12:48:15;3.67;;;3.47;;
10465;SDS011;5280;42.600;23.556;2022-09-03T12:50:44;4.13;;;3.83;;
10465;SDS011;5280;42.600;23.556;2022-09-03T12:53:13;4.00;;;3.70;;
10465;SDS011;5280;42.600;23.556;2022-09-03T12:55:50;4.70;;;3.77;;
10465;SDS011;5280;42.600;23.556;2022-09-03T12:58:21;3.97;;;3.73;;
10465;SDS011;5280;42.600;23.556;2022-09-03T13:00:53;3.70;;;3.40;;
10465;SDS011;5280;42.600;23.556;2022-09-03T13:03:26;3.77;;;3.53;;
10465;SDS011;5280;42.600;23.556;2022-09-03T13:05:56;3.70;;;3.50;;
10465;SDS011;5280;42.600;23.556;2022-09-03T13:08:28;3.60;;;3.40;;
10465;SDS011;5280;42.600;23.556;2022-09-03T13:10:57;3.77;;;3.47;;
10465;SDS011;5280;42.600;23.556;2022-09-03T13:13:29;4.30;;;4.00;;
10465;SDS011;5280;42.600;23.556;2022-09-03T13:18:57;4.03;;;3.77;;
10465;SDS011;5280;42.600;23.556;2022-09-03T13:21:29;3.97;;;3.67;;
10465;SDS011;5280;42.600;23.556;2022-09-03T13:27:01;3.80;;;3.30;;
10465;SDS011;5280;42.600;23.556;2022-09-03T13:29:38;4.03;;;3.73;;
10465;SDS011;5280;42.600;23.556;2022-09-03T13:32:30;3.83;;;3.53;;
10465;SDS011;5280;42.600;23.556;2022-09-03T13:35:05;3.80;;;3.17;;
10465;SDS011;5280;42.600;23.556;2022-09-03T13:37:37;3.93;;;3.43;;
10465;SDS011;5280;42.600;23.556;2022-09-03T13:40:11;4.00;;;3.70;;
10465;SDS011;5280;42.600;23.556;2022-09-03T13:42:43;3.90;;;3.60;;
10465;SDS011;5280;42.600;23.556;2022-09-03T13:45:20;4.00;;;3.70;;
10465;SDS011;5280;42.600;23.556;2022-09-03T13:47:57;4.90;;;4.23;;
10465;SDS011;5280;42.600;23.556;2022-09-03T13:50:48;3.97;;;3.60;;
10465;SDS011;5280;42.600;23.556;2022-09-03T13:53:25;3.70;;;3.40;;
10465;SDS011;5280;42.600;23.556;2022-09-03T13:56:01;3.73;;;3.43;;
10465;SDS011;5280;42.600;23.556;2022-09-03T13:58:40;4.47;;;4.07;;
10465;SDS011;5280;42.600;23.556;2022-09-03T14:01:12;7.67;;;4.63;;
10465;SDS011;5280;42.600;23.556;2022-09-03T14:03:47;4.73;;;3.80;;
10465;SDS011;5280;42.600;23.556;2022-09-03T14:06:19;3.60;;;3.40;;
10465;SDS011;5280;42.600;23.556;2022-09-03T14:08:58;3.80;;;3.40;;
10465;SDS011;5280;42.600;23.556;2022-09-03T14:11:34;4.20;;;3.80;;
10465;SDS011;5280;42.600;23.556;2022-09-03T14:14:12;4.10;;;3.80;;
10465;SDS011;5280;42.600;23.556;2022-09-03T14:16:47;3.90;;;3.60;;
10465;SDS011;5280;42.600;23.556;2022-09-03T14:19:30;3.90;;;3.60;;
10465;SDS011;5280;42.600;23.556;2022-09-03T14:22:04;3.30;;;3.00;;
10465;SDS011;5280;42.600;23.556;2022-09-03T14:24:37;2.60;;;2.40;;
10465;SDS011;5280;42.600;23.556;2022-09-03T14:27:11;3.20;;;3.00;;
10465;SDS011;5280;42.600;23.556;2022-09-03T14:29:48;3.27;;;3.07;;
10465;SDS011;5280;42.600;23.556;2022-09-03T14:32:21;3.20;;;2.90;;
10465;SDS011;5280;42.600;23.556;2022-09-03T14:34:57;4.20;;;3.37;;
10465;SDS011;5280;42.600;23.556;2022-09-03T14:41:02;3.57;;;3.30;;
10465;SDS011;5280;42.600;23.556;2022-09-03T14:43:47;3.83;;;3.57;;
10465;SDS011;5280;42.600;23.556;2022-09-03T14:46:42;3.67;;;3.47;;
10465;SDS011;5280;42.600;23.556;2022-09-03T14:52:17;3.40;;;3.20;;
10465;SDS011;5280;42.600;23.556;2022-09-03T14:57:54;3.93;;;3.63;;
10465;SDS011;5280;42.600;23.556;2022-09-03T15:00:45;3.70;;;3.50;;
10465;SDS011;5280;42.600;23.556;2022-09-03T15:03:27;4.20;;;3.50;;
10465;SDS011;5280;42.600;23.556;2022-09-03T15:06:10;3.20;;;3.00;;
10465;SDS011;5280;42.600;23.556;2022-09-03T15:11:42;2.63;;;2.53;;
10465;SDS011;5280;42.600;23.556;2022-09-03T15:14:17;3.47;;;3.17;;
10465;SDS011;5280;42.600;23.556;2022-09-03T15:16:50;3.20;;;3.00;;
10465;SDS011;5280;42.600;23.556;2022-09-03T15:19:42;5.00;;;2.77;;
10465;SDS011;5280;42.600;23.556;2022-09-03T15:22:31;3.17;;;3.00;;
10465;SDS011;5280;42.600;23.556;2022-09-03T15:25:11;3.00;;;2.80;;
10465;SDS011;5280;42.600;23.556;2022-09-03T15:27:49;4.63;;;2.93;;
10465;SDS011;5280;42.600;23.556;2022-09-03T15:30:31;3.03;;;2.83;;
10465;SDS011;5280;42.600;23.556;2022-09-03T15:33:05;3.50;;;3.20;;
10465;SDS011;5280;42.600;23.556;2022-09-03T15:35:49;3.33;;;3.13;;
10465;SDS011;5280;42.600;23.556;2022-09-03T15:38:27;3.80;;;3.50;;
10465;SDS011;5280;42.600;23.556;2022-09-03T15:41:33;7.83;;;3.60;;
10465;SDS011;5280;42.600;23.556;2022-09-03T15:44:06;4.07;;;3.03;;